Time;durP1;ratioP1;P1;durP2;ratioP2;P2;SDS_P1;SDS_P2;PMS_P1;PMS_P2;Temp;Humidity;BMP_temperature;BMP_pressure;BME280_temperature;BME280_humidity;BME280_pressure;Samples;Min_cycle;Max_cycle;Signal;HPM_P1;HPM_P2
2020/12/03 00:01:12;;;;;;;10.07;7.25;;;;;;;20.38;43.67;99328.72;4977178;28;20037;-77
2020/12/03 00:03:48;;;;;;;8.75;6.72;;;;;;;20.37;43.65;99317.31;4977348;28;20034;-80
2020/12/03 00:06:18;;;;;;;8.88;7.00;;;;;;;20.41;43.95;99317.22;4993386;28;20034;-78
2020/12/03 00:08:52;;;;;;;8.63;6.47;;;;;;;20.42;43.65;99314.50;4977262;28;20027;-76
2020/12/03 00:11:18;;;;;;;10.00;6.85;;;;;;;20.44;43.94;99293.41;4976608;28;20022;-78
2020/12/03 00:13:44;;;;;;;7.88;6.65;;;;;;;20.44;43.74;99291.63;4982554;28;20072;-79
2020/12/03 00:16:10;;;;;;;8.38;6.40;;;;;;;20.46;43.48;99288.97;4996432;28;20026;-78
2020/12/03 00:18:38;;;;;;;9.80;6.75;;;;;;;20.44;43.76;99286.38;5013794;28;20077;-79
2020/12/03 00:21:07;;;;;;;9.00;6.35;;;;;;;20.43;44.00;99279.38;4996319;28;20022;-78
2020/12/03 00:23:34;;;;;;;8.77;5.88;;;;;;;20.44;43.63;99273.22;5012691;28;20117;-80
2020/12/03 00:26:01;;;;;;;7.40;6.13;;;;;;;20.44;43.93;99275.00;4996129;28;20037;-78
2020/12/03 00:28:32;;;;;;;6.30;5.13;;;;;;;20.46;43.94;99274.03;4996470;28;20026;-78
2020/12/03 00:30:58;;;;;;;8.05;6.43;;;;;;;20.46;43.77;99276.66;5012526;28;20037;-78
2020/12/03 00:33:24;;;;;;;7.35;6.30;;;;;;;20.47;43.76;99267.84;4996542;28;20025;-80
2020/12/03 00:35:50;;;;;;;8.43;5.97;;;;;;;20.47;43.66;99267.00;5012671;28;20040;-78
2020/12/03 00:38:18;;;;;;;7.70;5.25;;;;;;;20.47;43.71;99259.09;5028225;28;20064;-77
2020/12/03 00:40:47;;;;;;;7.80;5.78;;;;;;;20.45;44.00;99259.16;4995575;28;20450;-78
2020/12/03 00:43:16;;;;;;;9.20;6.47;;;;;;;20.46;43.80;99249.50;5011980;28;20120;-80
2020/12/03 00:45:48;;;;;;;8.80;5.88;;;;;;;20.47;43.74;99245.94;4996273;28;20403;-78
2020/12/03 00:48:18;;;;;;;9.23;5.65;;;;;;;20.47;44.01;99240.69;4996257;28;20041;-79
2020/12/03 00:50:46;;;;;;;7.43;5.10;;;;;;;20.49;43.82;99233.56;5012136;28;20506;-78
2020/12/03 00:53:11;;;;;;;7.15;5.90;;;;;;;20.49;43.90;99225.66;5012077;28;20032;-79
2020/12/03 00:55:36;;;;;;;7.10;5.40;;;;;;;20.49;43.71;99223.91;4995541;28;20025;-79
2020/12/03 00:58:03;;;;;;;6.93;5.35;;;;;;;20.48;43.73;99222.19;5011810;28;20041;-79
2020/12/03 01:00:29;;;;;;;7.65;5.50;;;;;;;20.50;43.72;99216.84;5008673;28;20028;-77
2020/12/03 01:02:54;;;;;;;8.05;5.78;;;;;;;20.50;43.92;99214.22;4976184;28;20113;-78
2020/12/03 01:05:21;;;;;;;7.03;5.57;;;;;;;20.49;43.81;99208.13;4976626;28;20027;-77
2020/12/03 01:07:48;;;;;;;7.18;5.60;;;;;;;20.52;43.84;99204.50;4976562;28;20034;-81
2020/12/03 01:10:21;;;;;;;7.93;6.05;;;;;;;20.53;43.69;99204.47;4992836;28;20035;-76
2020/12/03 01:12:49;;;;;;;8.82;6.15;;;;;;;20.53;43.77;99200.97;4993128;28;20037;-77
2020/12/03 01:15:18;;;;;;;7.75;5.97;;;;;;;20.55;44.11;99199.13;4992776;28;20038;-79
2020/12/03 01:17:43;;;;;;;8.13;5.70;;;;;;;20.57;43.62;99199.94;4992238;28;20137;-79
2020/12/03 01:20:26;;;;;;;6.95;5.72;;;;;;;20.56;43.36;99202.59;4993495;28;20113;-78
2020/12/03 01:22:58;;;;;;;7.43;6.22;;;;;;;20.56;44.04;99202.59;4975999;28;20054;-79
2020/12/03 01:25:25;;;;;;;8.88;5.35;;;;;;;20.58;43.56;99201.66;4980572;28;20031;-81
2020/12/03 01:27:52;;;;;;;7.72;5.80;;;;;;;20.60;43.47;99197.19;5032229;28;20088;-80
2020/12/03 01:30:18;;;;;;;7.38;5.90;;;;;;;20.61;43.94;99190.13;5031452;28;20073;-78
2020/12/03 01:32:47;;;;;;;6.60;5.05;;;;;;;20.59;43.56;99190.19;5007612;28;20453;-78
2020/12/03 01:35:16;;;;;;;8.43;5.47;;;;;;;20.60;43.56;99180.50;4992863;28;20092;-74
2020/12/03 01:37:44;;;;;;;6.30;4.85;;;;;;;20.60;43.71;99189.28;4992143;28;20487;-78
2020/12/03 01:40:15;;;;;;;6.03;4.70;;;;;;;20.61;43.54;99177.84;5008253;28;20569;-80
2020/12/03 01:42:42;;;;;;;6.90;4.93;;;;;;;20.62;43.60;99176.06;4975972;28;20026;-79
2020/12/03 01:45:46;;;;;;;7.07;4.90;;;;;;;20.60;43.67;99168.22;4976542;28;20033;-81
2020/12/03 01:48:45;;;;;;;7.65;4.68;;;;;;;20.60;43.56;99162.09;4976824;28;20050;-76
2020/12/03 01:51:48;;;;;;;5.68;4.65;;;;;;;20.59;43.57;99155.97;4976080;28;20035;-76
2020/12/03 01:54:16;;;;;;;6.05;4.53;;;;;;;20.61;43.70;99148.00;4992308;28;20525;-76
2020/12/03 01:57:03;;;;;;;7.10;4.85;;;;;;;20.59;43.49;99145.47;5008949;28;20390;-79
2020/12/03 01:59:35;;;;;;;6.18;4.80;;;;;;;20.61;43.68;99151.53;5008265;28;20546;-80
2020/12/03 02:02:00;;;;;;;5.38;4.47;;;;;;;20.62;43.68;99147.09;5008728;28;20027;-78
2020/12/03 02:04:29;;;;;;;6.60;4.93;;;;;;;20.63;43.73;99152.28;4975838;28;20129;-77
2020/12/03 02:07:11;;;;;;;6.38;5.13;;;;;;;20.62;43.71;99150.59;4975671;28;20038;-80
2020/12/03 02:09:37;;;;;;;5.82;4.20;;;;;;;20.64;43.41;99137.38;5008354;28;20038;-80
2020/12/03 02:12:06;;;;;;;7.13;4.40;;;;;;;20.63;43.64;99143.56;5008199;28;20065;-73
2020/12/03 02:14:31;;;;;;;4.47;3.70;;;;;;;20.66;43.49;99144.28;4975877;28;20054;-77
2020/12/03 02:16:57;;;;;;;6.88;4.35;;;;;;;20.72;43.28;99140.53;4975836;28;20035;-78
2020/12/03 02:19:29;;;;;;;4.90;4.10;;;;;;;20.66;43.74;99133.75;5007267;28;20184;-79
2020/12/03 02:21:59;;;;;;;4.95;4.28;;;;;;;20.64;43.44;99132.09;4974512;28;20035;-77
2020/12/03 02:24:46;;;;;;;5.30;3.92;;;;;;;20.63;43.66;99140.91;4991299;28;20053;-78
2020/12/03 02:27:15;;;;;;;6.80;4.63;;;;;;;20.62;43.45;99132.19;4999831;28;20049;-78
2020/12/03 02:29:40;;;;;;;4.70;3.85;;;;;;;20.61;43.54;99122.56;4992778;28;20035;-78
2020/12/03 02:32:07;;;;;;;4.53;3.75;;;;;;;20.61;43.49;99117.31;4974820;28;20053;-78
2020/12/03 02:34:33;;;;;;;4.80;3.85;;;;;;;20.58;43.49;99116.53;4990735;28;20034;-77
2020/12/03 02:37:01;;;;;;;4.53;3.30;;;;;;;20.56;43.44;99116.63;4974765;28;20035;-77
2020/12/03 02:39:28;;;;;;;6.00;4.22;;;;;;;20.55;43.56;99109.63;4974609;28;20388;-78
2020/12/03 02:41:54;;;;;;;4.00;3.42;;;;;;;20.55;43.25;99101.75;4990976;28;20117;-78
2020/12/03 02:44:20;;;;;;;4.57;3.72;;;;;;;20.53;43.49;99093.06;4990828;28;20506;-78
2020/12/03 02:46:46;;;;;;;4.65;3.78;;;;;;;20.53;43.31;99087.78;4991053;28;20046;-79
2020/12/03 02:49:11;;;;;;;4.70;3.95;;;;;;;20.53;43.34;99085.16;4990591;28;20495;-78
2020/12/03 02:51:38;;;;;;;5.97;3.78;;;;;;;20.52;43.56;99083.44;4991080;28;20072;-78
2020/12/03 02:54:04;;;;;;;3.72;3.13;;;;;;;20.52;43.42;99084.31;4974603;28;20477;-78
2020/12/03 02:56:30;;;;;;;5.93;3.85;;;;;;;20.51;43.27;99073.84;4974679;28;20089;-77
2020/12/03 02:58:55;;;;;;;4.47;3.25;;;;;;;20.48;43.27;99074.81;4991988;28;20051;-78
2020/12/03 03:01:22;;;;;;;4.97;3.47;;;;;;;20.48;43.54;99069.56;4990584;28;20030;-79
2020/12/03 03:03:48;;;;;;;4.40;3.30;;;;;;;20.47;43.49;99061.75;4990450;28;20038;-78
2020/12/03 03:06:13;;;;;;;5.38;3.58;;;;;;;20.48;43.41;99058.16;4993578;28;20112;-76
2020/12/03 03:08:39;;;;;;;5.10;3.17;;;;;;;20.46;43.27;99050.34;4994580;28;20038;-76
2020/12/03 03:11:05;;;;;;;5.10;2.85;;;;;;;20.47;43.40;99045.94;5010582;28;20030;-77
2020/12/03 03:13:30;;;;;;;3.95;3.00;;;;;;;20.46;43.49;99041.59;4994084;28;20034;-78
2020/12/03 03:15:56;;;;;;;4.38;3.00;;;;;;;20.44;43.43;99046.06;4994297;28;20061;-79
2020/12/03 03:18:22;;;;;;;3.80;3.15;;;;;;;20.45;43.18;99046.00;4977697;28;20112;-78
2020/12/03 03:20:49;;;;;;;6.05;3.22;;;;;;;20.45;43.21;99032.84;4993841;28;20454;-78
2020/12/03 03:23:17;;;;;;;4.88;2.60;;;;;;;20.44;43.30;99014.50;4977925;28;20035;-76
2020/12/03 03:25:42;;;;;;;5.43;3.33;;;;;;;20.44;43.25;99007.44;5003114;28;20448;-77
2020/12/03 03:28:09;;;;;;;4.05;2.65;;;;;;;20.44;43.19;98998.69;5033299;28;20547;-78
2020/12/03 03:30:34;;;;;;;3.83;2.75;;;;;;;20.44;43.38;98998.69;4999008;28;20125;-76
2020/12/03 03:32:59;;;;;;;5.20;2.72;;;;;;;20.45;42.85;98995.16;4993828;28;20113;-78
2020/12/03 03:35:25;;;;;;;2.90;2.30;;;;;;;20.42;43.51;98993.47;4977558;28;20030;-80
2020/12/03 03:37:50;;;;;;;4.07;3.28;;;;;;;20.42;43.19;98985.59;4977887;28;20053;-78
2020/12/03 03:40:16;;;;;;;4.22;2.63;;;;;;;20.42;43.18;98974.22;4993706;28;20050;-78
2020/12/03 03:42:42;;;;;;;3.28;2.40;;;;;;;20.44;43.37;98978.50;4977329;28;20503;-78
2020/12/03 03:45:09;;;;;;;3.90;2.45;;;;;;;20.43;43.26;98973.31;4993600;28;20443;-78
2020/12/03 03:47:36;;;;;;;3.50;2.25;;;;;;;20.42;43.10;98969.81;4993586;28;20077;-78
2020/12/03 03:50:03;;;;;;;3.22;2.63;;;;;;;20.42;43.18;98968.97;4977281;28;20028;-80
2020/12/03 03:52:28;;;;;;;2.97;2.40;;;;;;;20.42;43.26;98955.81;4993914;28;20030;-77
2020/12/03 03:54:55;;;;;;;3.00;2.30;;;;;;;20.41;43.30;98957.56;4977591;28;20510;-78
2020/12/03 03:57:20;;;;;;;3.10;2.35;;;;;;;20.41;43.33;98952.31;4993179;28;20042;-79
2020/12/03 03:59:48;;;;;;;3.75;2.38;;;;;;;20.39;43.43;98952.38;4977065;28;20052;-79
2020/12/03 04:02:24;;;;;;;4.35;2.50;;;;;;;20.40;43.30;98961.13;4993161;28;20563;-77
2020/12/03 04:04:51;;;;;;;3.15;2.13;;;;;;;20.41;43.32;98951.47;4977155;28;20054;-78
2020/12/03 04:07:17;;;;;;;4.20;2.28;;;;;;;20.42;43.20;98950.53;4993072;28;20118;-77
2020/12/03 04:09:43;;;;;;;2.97;2.33;;;;;;;20.40;43.43;98947.97;4976999;28;20026;-79
2020/12/03 04:12:09;;;;;;;2.70;2.22;;;;;;;20.41;43.33;98938.31;4977087;28;20530;-77
2020/12/03 04:14:35;;;;;;;3.03;2.30;;;;;;;20.39;43.34;98946.28;4994408;28;20026;-78
2020/12/03 04:17:01;;;;;;;3.53;2.13;;;;;;;20.39;43.56;98939.22;4976720;28;20089;-80
2020/12/03 04:19:29;;;;;;;4.85;2.15;;;;;;;20.36;43.17;98944.59;4992993;28;20050;-79
2020/12/03 04:21:54;;;;;;;2.70;1.88;;;;;;;20.40;43.17;98942.69;4993015;28;20038;-78
2020/12/03 04:24:20;;;;;;;3.05;2.30;;;;;;;20.39;43.25;98939.22;4976891;28;20031;-78
2020/12/03 04:26:46;;;;;;;3.83;2.20;;;;;;;20.39;43.28;98938.38;5002594;28;20030;-78
2020/12/03 04:29:14;;;;;;;3.67;2.20;;;;;;;20.39;43.22;98928.69;5025452;28;20521;-76
2020/12/03 04:31:43;;;;;;;2.88;1.98;;;;;;;20.37;43.25;98930.53;5011805;28;20038;-79
2020/12/03 04:34:09;;;;;;;3.40;2.47;;;;;;;20.37;43.29;98917.38;5012584;28;20069;-78
2020/12/03 04:36:35;;;;;;;3.08;2.13;;;;;;;20.36;43.22;98913.03;5012408;28;20137;-79
2020/12/03 04:39:00;;;;;;;3.08;1.90;;;;;;;20.38;43.08;98910.38;5011478;28;20149;-79
2020/12/03 04:41:26;;;;;;;3.63;2.13;;;;;;;20.38;43.27;98913.00;5012325;28;20168;-78
2020/12/03 04:44:16;;;;;;;2.63;1.75;;;;;;;20.36;43.12;98906.94;5012301;28;20129;-77
2020/12/03 04:47:13;;;;;;;3.55;1.83;;;;;;;20.35;43.21;98907.84;5003408;28;20045;-79
2020/12/03 04:49:49;;;;;;;2.78;2.00;;;;;;;20.35;43.13;98911.31;5012170;28;20033;-78
2020/12/03 04:52:35;;;;;;;2.85;1.73;;;;;;;20.34;43.21;98914.88;5012133;28;20041;-78
2020/12/03 04:55:17;;;;;;;2.70;1.95;;;;;;;20.33;43.28;98902.63;5012168;28;20034;-78
2020/12/03 04:57:49;;;;;;;2.90;1.88;;;;;;;20.34;43.33;98914.88;5011560;28;20029;-79
2020/12/03 05:00:36;;;;;;;2.65;1.98;;;;;;;20.36;43.20;98892.00;5011772;28;20045;-78
2020/12/03 05:03:01;;;;;;;2.55;1.70;;;;;;;20.38;43.14;98879.63;5011696;28;20034;-77
2020/12/03 05:05:37;;;;;;;2.25;1.60;;;;;;;20.35;43.20;98879.75;5011809;28;20037;-78
2020/12/03 05:08:08;;;;;;;4.38;2.13;;;;;;;20.34;43.09;98867.53;5011608;28;20069;-79
2020/12/03 05:10:45;;;;;;;3.33;1.75;;;;;;;20.33;43.08;98857.91;5011080;28;20034;-79
2020/12/03 05:13:22;;;;;;;2.33;1.52;;;;;;;20.33;43.20;98857.06;5010606;28;20041;-79
2020/12/03 05:16:08;;;;;;;3.05;1.80;;;;;;;20.31;43.06;98846.63;4991738;28;20053;-78
2020/12/03 05:18:50;;;;;;;2.80;1.65;;;;;;;20.31;43.18;98841.38;4991822;28;20526;-79
2020/12/03 05:21:20;;;;;;;1.80;1.23;;;;;;;20.31;43.04;98841.38;4975459;28;20509;-77
2020/12/03 05:23:48;;;;;;;3.08;1.98;;;;;;;20.33;43.22;98830.75;4992002;28;20081;-78
2020/12/03 05:26:18;;;;;;;2.22;1.52;;;;;;;20.33;43.28;98828.97;5016960;28;20041;-78
2020/12/03 05:28:49;;;;;;;2.42;1.50;;;;;;;20.31;43.30;98825.59;4991449;28;20499;-78
2020/12/03 05:31:26;;;;;;;2.45;1.48;;;;;;;20.30;43.29;98812.47;4991423;28;20062;-78
2020/12/03 05:33:52;;;;;;;1.90;1.30;;;;;;;20.33;43.08;98818.44;4992001;28;20027;-78
2020/12/03 05:36:27;;;;;;;2.55;1.60;;;;;;;20.33;42.88;98807.94;4992034;28;20088;-78
2020/12/03 05:38:54;;;;;;;2.67;1.90;;;;;;;20.33;43.04;98805.31;4991798;28;20042;-78
2020/12/03 05:41:21;;;;;;;2.45;1.80;;;;;;;20.35;43.22;98800.00;4991452;28;20035;-77
2020/12/03 05:43:47;;;;;;;3.03;1.52;;;;;;;20.34;42.98;98788.59;4991650;28;20045;-78
2020/12/03 05:46:15;;;;;;;2.63;1.77;;;;;;;20.35;43.09;98789.47;4991525;28;20027;-78
2020/12/03 05:48:41;;;;;;;1.85;1.38;;;;;;;20.35;42.98;98792.09;4991645;28;20125;-78
2020/12/03 05:51:28;;;;;;;2.03;1.50;;;;;;;20.31;43.08;98786.13;4975476;28;20470;-78
2020/12/03 05:54:00;;;;;;;2.45;1.70;;;;;;;20.34;42.98;98780.69;4991903;28;20027;-80
2020/12/03 05:56:29;;;;;;;2.67;1.40;;;;;;;20.35;42.90;98774.53;4991500;28;20038;-78
2020/12/03 05:58:54;;;;;;;2.75;1.67;;;;;;;20.36;43.19;98775.38;4974751;28;20146;-80
2020/12/03 06:01:25;;;;;;;3.55;1.83;;;;;;;20.36;42.97;98768.34;4986413;28;20073;-79
2020/12/03 06:04:20;;;;;;;3.78;1.70;;;;;;;20.36;43.06;98770.13;4979151;28;20026;-78
2020/12/03 06:07:03;;;;;;;2.17;1.45;;;;;;;20.37;43.08;98771.84;4991735;28;20058;-76
2020/12/03 06:09:44;;;;;;;2.35;1.52;;;;;;;20.35;43.13;98779.78;5016599;28;20034;-79
2020/12/03 06:12:37;;;;;;;2.20;1.42;;;;;;;20.38;43.11;98773.56;5010679;28;20050;-77
2020/12/03 06:15:15;;;;;;;2.60;1.52;;;;;;;20.38;42.93;98773.56;4994511;28;20039;-78
2020/12/03 06:18:20;;;;;;;2.03;1.33;;;;;;;20.33;43.16;98765.84;4992445;28;20120;-78
2020/12/03 06:20:53;;;;;;;2.88;1.40;;;;;;;20.35;43.07;98757.91;4990663;28;20092;-77
2020/12/03 06:23:27;;;;;;;4.97;1.52;;;;;;;20.35;43.03;98753.47;4988524;28;20034;-79
2020/12/03 06:26:11;;;;;;;18.05;1.50;;;;;;;20.36;43.25;98749.91;4996208;28;20077;-78
2020/12/03 06:28:55;;;;;;;11.02;4.97;;;;;;;20.37;43.06;98732.38;5009464;28;20065;-80
2020/12/03 06:31:30;;;;;;;7.22;5.57;;;;;;;20.38;43.18;98736.72;5010232;28;20080;-78
2020/12/03 06:34:22;;;;;;;4.97;3.30;;;;;;;20.42;43.29;98734.78;5010525;28;20053;-78
2020/12/03 06:36:56;;;;;;;6.78;4.13;;;;;;;20.41;43.21;98727.81;5002281;28;20038;-78
2020/12/03 06:39:39;;;;;;;8.00;3.95;;;;;;;20.39;43.11;98717.38;5010432;28;20029;-76
2020/12/03 06:42:22;;;;;;;6.30;3.63;;;;;;;20.39;43.19;98722.63;5009689;28;20100;-78
2020/12/03 06:45:04;;;;;;;8.38;3.60;;;;;;;20.42;43.18;98711.94;5004411;28;20065;-74
2020/12/03 06:47:39;;;;;;;7.38;2.90;;;;;;;20.44;42.99;98707.47;5005331;28;20070;-74
2020/12/03 06:50:38;;;;;;;5.95;2.88;;;;;;;20.45;43.01;98708.34;4995890;28;20030;-76
2020/12/03 06:53:42;;;;;;;6.22;3.42;;;;;;;20.46;43.33;98692.47;4986068;28;20058;-76
2020/12/03 06:56:27;;;;;;;9.00;3.90;;;;;;;20.47;43.19;98683.66;5008380;28;20034;-75
2020/12/03 06:59:25;;;;;;;9.05;4.57;;;;;;;20.51;43.14;98684.38;5013018;28;20061;-76
2020/12/03 07:02:02;;;;;;;9.32;4.82;;;;;;;20.52;43.27;98691.34;4981386;28;20096;-79
2020/12/03 07:05:09;;;;;;;10.43;4.90;;;;;;;20.52;43.25;98671.16;4995686;28;20031;-78
2020/12/03 07:07:47;;;;;;;10.45;4.32;;;;;;;20.51;43.28;98673.84;4987288;28;20085;-75
2020/12/03 07:10:40;;;;;;;22.90;5.38;;;;;;;20.56;43.23;98671.84;4997257;28;20504;-74
2020/12/03 07:13:59;;;;;;;12.27;4.40;;;;;;;20.51;43.37;98658.91;4995321;28;20034;-76
2020/12/03 07:16:24;;;;;;;13.55;4.57;;;;;;;20.53;43.21;98651.81;4935059;29;20039;-74
2020/12/03 07:18:50;;;;;;;8.57;4.25;;;;;;;20.51;43.33;98658.91;4989868;28;20431;-76
2020/12/03 07:22:04;;;;;;;11.82;4.63;;;;;;;20.48;43.17;98664.31;4992670;28;20172;-78
2020/12/03 07:24:32;;;;;;;10.60;4.13;;;;;;;20.46;43.23;98653.00;4987404;28;20468;-77
2020/12/03 07:27:11;;;;;;;6.45;3.38;;;;;;;20.48;43.12;98650.28;5009939;28;20117;-78
2020/12/03 07:29:47;;;;;;;12.38;4.18;;;;;;;20.47;42.98;98654.72;4996312;28;20037;-77
2020/12/03 07:32:26;;;;;;;9.63;4.05;;;;;;;20.46;43.05;98658.28;5013610;28;20062;-78
2020/12/03 07:35:01;;;;;;;11.07;3.85;;;;;;;20.45;42.97;98653.94;5013237;28;20042;-80
2020/12/03 07:37:40;;;;;;;10.32;3.95;;;;;;;20.46;42.98;98649.53;5014756;28;20041;-76
2020/12/03 07:40:07;;;;;;;8.93;3.53;;;;;;;20.47;43.09;98656.50;5013875;28;20045;-76
2020/12/03 07:42:33;;;;;;;6.20;3.25;;;;;;;20.46;43.00;98645.13;5014606;28;20034;-73
2020/12/03 07:44:59;;;;;;;12.55;4.00;;;;;;;20.44;43.15;98641.69;5014481;28;20821;-79
2020/12/03 07:47:38;;;;;;;9.55;3.53;;;;;;;20.46;43.11;98636.38;5014503;28;20034;-78
2020/12/03 07:50:07;;;;;;;6.30;3.38;;;;;;;20.46;42.99;98636.38;5013094;28;20041;-79
2020/12/03 07:52:38;;;;;;;7.55;3.28;;;;;;;20.45;42.98;98639.94;5013037;28;20125;-78
2020/12/03 07:55:22;;;;;;;6.88;3.45;;;;;;;20.41;43.08;98630.47;5012961;28;20041;-78
2020/12/03 07:58:02;;;;;;;9.15;3.47;;;;;;;20.42;43.03;98619.03;5012919;28;20487;-79
2020/12/03 08:00:33;;;;;;;8.70;3.60;;;;;;;20.42;43.03;98609.34;5009617;28;20066;-80
2020/12/03 08:03:00;;;;;;;6.75;3.17;;;;;;;20.43;43.09;98612.84;4994689;28;20038;-78
2020/12/03 08:05:51;;;;;;;11.40;3.42;;;;;;;20.39;43.35;98597.19;4994360;28;20038;-80
2020/12/03 08:08:23;;;;;;;7.72;3.33;;;;;;;20.41;42.99;98593.63;4976936;28;20038;-78
2020/12/03 08:10:52;;;;;;;5.80;2.92;;;;;;;20.43;43.11;98587.38;5002326;28;20117;-78
2020/12/03 08:13:21;;;;;;;6.10;3.13;;;;;;;20.41;42.96;98599.75;5013869;28;20110;-79
2020/12/03 08:16:03;;;;;;;6.22;2.53;;;;;;;20.41;43.10;98596.28;5029192;28;20034;-78
2020/12/03 08:18:40;;;;;;;10.13;4.57;;;;;;;20.39;43.17;98604.25;5013783;28;20030;-79
2020/12/03 08:21:07;;;;;;;6.68;3.25;;;;;;;20.41;42.92;98593.63;5012567;28;20048;-78
2020/12/03 08:23:32;;;;;;;6.95;3.22;;;;;;;20.42;42.99;98596.19;5028991;28;20033;-78
2020/12/03 08:25:58;;;;;;;9.77;4.90;;;;;;;20.44;42.93;98586.44;5012130;28;20037;-78
2020/12/03 08:28:29;;;;;;;11.75;5.07;;;;;;;20.45;43.01;98585.53;5011417;28;20069;-78
2020/12/03 08:30:54;;;;;;;8.32;4.10;;;;;;;20.44;42.85;98583.81;5011998;28;20061;-80
2020/12/03 08:33:29;;;;;;;9.98;5.22;;;;;;;20.44;42.96;98582.97;5012278;28;20069;-77
2020/12/03 08:36:04;;;;;;;8.00;4.32;;;;;;;20.46;42.92;98581.13;5013649;28;20030;-80
2020/12/03 08:38:37;;;;;;;8.60;4.05;;;;;;;20.45;42.94;98577.63;4995513;28;20117;-79
2020/12/03 08:41:07;;;;;;;6.40;3.88;;;;;;;20.46;43.08;98570.59;5028300;28;20502;-78
2020/12/03 08:43:39;;;;;;;8.07;4.57;;;;;;;20.47;43.02;98577.56;5013220;28;20099;-80
2020/12/03 08:46:13;;;;;;;8.98;4.35;;;;;;;20.46;43.11;98567.97;4995897;28;20124;-79
2020/12/03 08:48:40;;;;;;;11.50;4.20;;;;;;;20.45;42.91;98563.63;5011958;28;20042;-79
2020/12/03 08:51:08;;;;;;;8.00;4.28;;;;;;;20.47;42.96;98554.72;5012129;28;20037;-79
2020/12/03 08:53:36;;;;;;;7.18;4.25;;;;;;;20.51;43.11;98558.06;5011841;28;20045;-79
2020/12/03 08:56:34;;;;;;;7.65;4.10;;;;;;;20.46;43.07;98555.66;5012188;28;20132;-80
2020/12/03 08:59:08;;;;;;;9.00;4.07;;;;;;;20.51;42.95;98558.94;5010084;28;20064;-80
2020/12/03 09:01:36;;;;;;;6.35;3.78;;;;;;;20.52;42.98;98555.38;4995275;28;20034;-78
2020/12/03 09:04:03;;;;;;;8.48;3.90;;;;;;;20.51;42.89;98553.66;4992691;28;20451;-78
2020/12/03 09:06:30;;;;;;;9.20;4.10;;;;;;;20.51;42.95;98553.66;4993428;28;20022;-75
2020/12/03 09:08:56;;;;;;;6.57;4.15;;;;;;;20.50;43.02;98543.19;4992340;28;20542;-77
2020/12/03 09:11:23;;;;;;;9.73;3.92;;;;;;;20.49;43.01;98547.63;4992950;28;20031;-78
2020/12/03 09:13:54;;;;;;;8.38;4.07;;;;;;;20.51;42.86;98547.53;4993333;28;20088;-78
2020/12/03 09:16:22;;;;;;;7.00;4.00;;;;;;;20.50;43.07;98535.31;4993211;28;20076;-77
2020/12/03 09:18:48;;;;;;;9.23;3.85;;;;;;;20.53;42.91;98524.63;4992908;28;20042;-76
2020/12/03 09:21:13;;;;;;;5.95;3.13;;;;;;;20.51;43.09;98505.44;4992701;28;20953;-78
2020/12/03 09:23:46;;;;;;;8.88;3.22;;;;;;;20.55;42.76;98507.00;4993153;28;20101;-78
2020/12/03 09:26:17;;;;;;;6.38;3.38;;;;;;;20.55;43.04;98509.63;5001332;28;20048;-77
2020/12/03 09:28:47;;;;;;;6.88;3.08;;;;;;;20.54;42.83;98523.69;5012316;28;20560;-77
2020/12/03 09:31:13;;;;;;;6.50;3.75;;;;;;;20.57;42.83;98523.56;5012494;28;20034;-77
2020/12/03 09:33:44;;;;;;;6.43;3.53;;;;;;;20.57;42.85;98517.44;5012447;28;20034;-79
2020/12/03 09:36:11;;;;;;;7.80;3.47;;;;;;;20.59;42.83;98523.47;5012223;28;20108;-76
2020/12/03 09:38:40;;;;;;;7.22;3.50;;;;;;;20.57;42.98;98514.78;5012465;28;20034;-78
2020/12/03 09:41:07;;;;;;;6.50;3.40;;;;;;;20.60;42.77;98518.16;5012213;28;20034;-75
2020/12/03 09:43:34;;;;;;;7.28;3.72;;;;;;;20.58;42.77;98500.72;5012241;28;20037;-76
2020/12/03 09:46:05;;;;;;;7.40;3.70;;;;;;;20.57;42.70;98505.13;5012386;28;20038;-77
2020/12/03 09:48:32;;;;;;;7.28;3.20;;;;;;;20.56;43.00;98503.44;5012367;28;20116;-77
2020/12/03 09:51:02;;;;;;;5.88;3.13;;;;;;;20.57;42.88;98489.34;5012153;28;20461;-74
2020/12/03 09:53:28;;;;;;;5.03;2.88;;;;;;;20.59;43.00;98478.72;5012299;28;20037;-78
2020/12/03 09:56:00;;;;;;;7.57;3.13;;;;;;;20.57;42.99;98470.94;5012487;28;20040;-77
2020/12/03 09:58:26;;;;;;;6.28;3.05;;;;;;;20.58;42.89;98464.75;5012060;28;20045;-77
2020/12/03 10:00:53;;;;;;;5.63;2.90;;;;;;;20.59;42.94;98470.84;5001276;28;20042;-77
2020/12/03 10:03:35;;;;;;;5.43;3.45;;;;;;;20.59;43.00;98455.06;4992360;28;20036;-76
2020/12/03 10:06:07;;;;;;;5.50;3.22;;;;;;;20.60;42.97;98455.00;4991982;28;20052;-79
2020/12/03 10:09:01;;;;;;;5.28;3.10;;;;;;;20.59;42.70;98434.88;4992425;28;20419;-77
2020/12/03 10:11:51;;;;;;;7.78;3.00;;;;;;;20.63;42.89;98432.91;5008164;28;20123;-75
2020/12/03 10:14:49;;;;;;;5.18;2.50;;;;;;;20.61;42.80;98422.47;5011737;28;20045;-76
2020/12/03 10:17:17;;;;;;;7.97;3.00;;;;;;;20.65;42.72;98423.16;5010722;28;20042;-79
2020/12/03 10:19:44;;;;;;;4.18;2.70;;;;;;;20.68;42.71;98405.44;5011644;28;20038;-78
2020/12/03 10:22:18;;;;;;;6.38;2.95;;;;;;;20.67;42.82;98414.25;5011968;28;20034;-78
2020/12/03 10:24:48;;;;;;;5.63;2.95;;;;;;;20.71;42.70;98401.78;5011814;28;20026;-75
2020/12/03 10:27:13;;;;;;;5.55;2.78;;;;;;;20.71;42.69;98387.78;5010354;28;20048;-81
2020/12/03 10:30:00;;;;;;;4.18;2.45;;;;;;;20.66;42.84;98383.59;5027047;28;20046;-78
2020/12/03 10:32:26;;;;;;;6.70;2.60;;;;;;;20.68;42.73;98365.13;5027026;28;20398;-74
2020/12/03 10:34:53;;;;;;;4.32;2.28;;;;;;;20.68;42.65;98365.13;5011463;28;20034;-75
2020/12/03 10:37:31;;;;;;;6.43;3.13;;;;;;;20.69;42.46;98356.28;5010513;28;20037;-75
2020/12/03 10:40:14;;;;;;;5.72;2.40;;;;;;;20.70;42.78;98352.72;5011490;28;20084;-77
2020/12/03 10:42:46;;;;;;;4.07;2.20;;;;;;;20.70;42.97;98344.84;5011701;28;20034;-78
2020/12/03 10:45:16;;;;;;;4.65;2.47;;;;;;;20.73;42.63;98343.81;5011884;28;20034;-77
2020/12/03 10:47:52;;;;;;;5.35;2.30;;;;;;;20.72;42.74;98337.69;5011373;28;20422;-76
2020/12/03 10:50:19;;;;;;;6.40;2.22;;;;;;;20.74;42.85;98327.91;5010515;28;20029;-77
2020/12/03 10:52:45;;;;;;;4.68;2.47;;;;;;;20.71;42.85;98329.88;5011810;28;20034;-78
2020/12/03 10:55:18;;;;;;;4.50;2.50;;;;;;;20.70;42.97;98326.41;5011789;28;20057;-78
2020/12/03 10:57:59;;;;;;;4.03;1.93;;;;;;;20.72;42.80;98324.53;5010407;28;20066;-77
2020/12/03 11:00:25;;;;;;;4.82;2.17;;;;;;;20.71;42.97;98319.34;5004794;28;20786;-78
2020/12/03 11:02:55;;;;;;;3.72;2.30;;;;;;;20.71;42.76;98319.34;4991882;28;20113;-76
2020/12/03 11:05:20;;;;;;;4.10;2.15;;;;;;;20.73;43.01;98320.13;4990275;28;20083;-77
2020/12/03 11:07:54;;;;;;;4.75;2.15;;;;;;;20.71;42.90;98314.09;4992013;28;20403;-78
2020/12/03 11:10:20;;;;;;;3.60;2.25;;;;;;;20.71;42.77;98311.44;4998464;28;20095;-77
2020/12/03 11:12:49;;;;;;;3.35;1.88;;;;;;;20.77;42.61;98312.00;5026519;28;20030;-76
2020/12/03 11:15:20;;;;;;;4.65;2.00;;;;;;;20.72;42.93;98302.63;5011395;28;20081;-79
2020/12/03 11:18:06;;;;;;;3.45;1.85;;;;;;;20.72;42.90;98294.72;5010059;28;20053;-78
2020/12/03 11:20:37;;;;;;;3.78;2.10;;;;;;;20.71;42.59;98291.22;5011532;28;20045;-78
2020/12/03 11:23:05;;;;;;;3.08;1.75;;;;;;;20.73;42.64;98280.63;5011396;28;20553;-77
2020/12/03 11:25:32;;;;;;;3.10;1.85;;;;;;;20.69;42.76;98275.53;5011498;28;20041;-78
2020/12/03 11:28:03;;;;;;;3.22;2.00;;;;;;;20.72;42.90;98271.03;5014897;28;20030;-75
2020/12/03 11:30:31;;;;;;;3.35;1.88;;;;;;;20.69;42.77;98264.19;5014759;28;20441;-75
2020/12/03 11:32:57;;;;;;;3.63;2.10;;;;;;;20.68;42.82;98252.78;5014407;28;20038;-75
2020/12/03 11:35:27;;;;;;;3.08;1.80;;;;;;;20.71;42.82;98251.75;5014918;28;20033;-77
2020/12/03 11:37:54;;;;;;;2.70;1.80;;;;;;;20.70;42.62;98247.44;5014683;28;20104;-78
2020/12/03 11:45:52;;;;;;;3.50;2.10;;;;;;;20.72;42.85;98213.13;5014292;28;20100;-75
2020/12/03 11:48:33;;;;;;;5.00;1.83;;;;;;;20.69;42.66;98217.63;5014316;28;20038;-75
2020/12/03 11:50:59;;;;;;;5.65;1.77;;;;;;;20.73;42.71;98206.94;5014679;28;20115;-79
2020/12/03 11:53:26;;;;;;;4.60;1.60;;;;;;;20.72;42.84;98205.25;5014519;28;20073;-75
2020/12/03 11:55:51;;;;;;;2.80;1.60;;;;;;;20.72;42.61;98200.81;5014467;28;20062;-76
2020/12/03 11:58:17;;;;;;;3.13;1.80;;;;;;;20.74;42.79;98187.59;5014206;28;20486;-75
2020/12/03 12:00:47;;;;;;;2.58;1.60;;;;;;;20.74;42.79;98182.31;5004340;28;20046;-74